Meloi — 3FOD — position and weather

sailwx.info

Track history (hours):
 
Tides and Currents Weather Stations Pressure Air Temp Water Temp Dewpoint Dewpoint Depression Visibility Wind Speed Wind Dir Waves Ship Positions

Meloi

Last reported at 2015-Mar-31 23:29 UTC. Time now 2015-Apr-02 01:24 UTC.
Position N 36°48' E 013°03'.

Length 180 m; draft 10.4 m.

Type: Cargo ship. MMSI: 351132000.

Date/timePositionNaut miles runAvg speedWind from/ knotsBaromVisibWave heightAir tempDewpointWater temp
2015-Mar-31 23:29N 36°48' E 013°03'1010.5
2015-Mar-31 22:33N 36°44' E 013°14'1110.7
2015-Mar-31 21:31N 36°40' E 013°27'10 9.8
2015-Mar-31 20:30N 36°36' E 013°38'10 9.4
2015-Mar-31 19:29N 36°32' E 013°50'10 9.9
2015-Mar-31 18:27N 36°28' E 014°01'1010.3
2015-Mar-31 17:31N 36°24' E 014°12'1410.4
2015-Mar-31 16:11N 36°18' E 014°28'710.5
2015-Mar-31 15:33N 36°16' E 014°35'1110.4
2015-Mar-31 14:30N 36°11' E 014°48'1210.5
2015-Mar-31 13:23N 36°07' E 015°01'  
2015-Mar-27 22:31N 31°30' E 032°23'1510.8
2015-Mar-27 21:05N 31°14' E 032°21'4 7.5
2015-Mar-27 20:33N 31°10' E 032°20'1110.7
2015-Mar-27 19:33N 30°60' E 032°19'1110.2
2015-Mar-27 18:31N 30°49' E 032°19'  
Track history (hours):
 
Tides and Currents Weather Stations Pressure Air Temp Water Temp Dewpoint Dewpoint Depression Visibility Wind Speed Wind Dir Waves Ship Positions

Meloi

Last reported at 2015-Mar-31 23:29 UTC. Time now 2015-Apr-02 01:24 UTC.
Position N 36°48' E 013°03'.

Length 180 m; draft 10.4 m.

Type: Cargo ship. MMSI: 351132000.

Date/timePositionNaut miles runAvg speedWind from/ knotsBaromVisibWave heightAir tempDewpointWater temp
2015-Mar-31 23:29N 36°48' E 013°03'1010.5
2015-Mar-31 22:33N 36°44' E 013°14'1110.7
2015-Mar-31 21:31N 36°40' E 013°27'10 9.8
2015-Mar-31 20:30N 36°36' E 013°38'10 9.4
2015-Mar-31 19:29N 36°32' E 013°50'10 9.9
2015-Mar-31 18:27N 36°28' E 014°01'1010.3
2015-Mar-31 17:31N 36°24' E 014°12'1410.4
2015-Mar-31 16:11N 36°18' E 014°28'710.5
2015-Mar-31 15:33N 36°16' E 014°35'1110.4
2015-Mar-31 14:30N 36°11' E 014°48'1210.5
2015-Mar-31 13:23N 36°07' E 015°01'  
2015-Mar-27 22:31N 31°30' E 032°23'1510.8
2015-Mar-27 21:05N 31°14' E 032°21'4 7.5
2015-Mar-27 20:33N 31°10' E 032°20'1110.7
2015-Mar-27 19:33N 30°60' E 032°19'1110.2
2015-Mar-27 18:31N 30°49' E 032°19'  

Dump ship's entire track history